YAYE/AYQ METAR and TAF weather

Enter ICAO airport designator
Station Type Date Time Source
YAYE METAR 2020/02/25 11:00 UTC NOAA

YAYE 251100Z AUTO 13011KT 9999 // NCD 35/04 Q1011


Station Type Date Time Source
YAYE Decoded METAR 2020/02/25 11:00 UTC NOAA

Ayers Rock, Australia (YAYE) 25-11S 130-58E
Feb 25, 2020 - 06:00 AM EST / 2020.02.25 1100 UTC
Wind: from the SE (130 degrees) at 13 MPH (11 KT):0
Visibility: greater than 7 mile(s):0
Temperature: 95 F (35 C)
Dew Point: 39 F (4 C)
Relative Humidity: 14%
Pressure (altimeter): 29.85 in. Hg (1011 hPa)
ob: YAYE 251100Z AUTO 13011KT 9999 // NCD 35/04 Q1011
cycle: 11

Station Type Date Time Source
YAYE TAF UTC NOAA

Error!

Example: see airport list